Time;durP1;ratioP1;P1;durP2;ratioP2;P2;SDS_P1;SDS_P2;PMS_P1;PMS_P2;Temp;Humidity;BMP_temperature;BMP_pressure;BME280_temperature;BME280_humidity;BME280_pressure;Samples;Min_cycle;Max_cycle;Signal;HPM_P1;HPM_P2
2022/01/12 00:01:40;;;;;;;24.00;11.35;;;0.00;99.90;;;;;;5008272;28;20034;-75
2022/01/12 00:04:07;;;;;;;21.05;11.60;;;0.00;99.90;;;;;;5011986;28;20044;-75
2022/01/12 00:06:33;;;;;;;23.45;11.63;;;0.00;99.90;;;;;;5011766;28;20099;-75
2022/01/12 00:09:05;;;;;;;19.70;12.43;;;0.00;99.90;;;;;;5011376;28;20029;-76
2022/01/12 00:11:31;;;;;;;22.98;12.38;;;0.00;99.90;;;;;;5011950;28;20041;-75
2022/01/12 00:13:57;;;;;;;21.45;12.07;;;0.00;99.90;;;;;;4996435;28;20076;-75
2022/01/12 00:16:24;;;;;;;19.85;10.50;;;0.00;99.90;;;;;;5014855;28;20476;-76
2022/01/12 00:18:50;;;;;;;23.02;11.88;;;0.00;99.90;;;;;;5015650;28;20018;-79
2022/01/12 00:21:16;;;;;;;20.08;12.15;;;0.00;99.90;;;;;;5016091;28;20091;-80
2022/01/12 00:23:42;;;;;;;22.70;12.00;;;0.00;99.90;;;;;;5015692;28;20064;-74
2022/01/12 00:26:12;;;;;;;17.85;10.38;;;0.00;99.90;;;;;;4997967;28;20088;-78
2022/01/12 00:34:17;;;;;;;22.77;12.57;;;0.00;99.90;;;;;;5015520;28;20033;-74
2022/01/12 00:36:44;;;;;;;20.20;11.30;;;0.10;99.90;;;;;;4997875;28;20034;-73
2022/01/12 00:39:10;;;;;;;20.02;10.13;;;0.00;99.90;;;;;;4997705;28;20068;-76
2022/01/12 00:41:38;;;;;;;19.45;10.93;;;0.10;99.90;;;;;;4997891;28;20026;-77
2022/01/12 00:44:07;;;;;;;16.88;9.30;;;0.00;99.90;;;;;;4998056;28;20036;-77
2022/01/12 00:46:35;;;;;;;16.17;9.13;;;0.10;99.90;;;;;;5015239;28;20776;-74
2022/01/12 00:49:00;;;;;;;18.42;9.25;;;0.10;99.90;;;;;;4997142;28;20040;-76
2022/01/12 00:51:30;;;;;;;17.55;9.88;;;0.10;99.90;;;;;;5015257;28;20038;-78
2022/01/12 00:53:58;;;;;;;18.35;9.75;;;0.10;99.90;;;;;;4997786;28;20030;-78
2022/01/12 00:56:24;;;;;;;20.17;9.23;;;0.10;99.90;;;;;;4997655;28;20030;-77
2022/01/12 00:58:51;;;;;;;18.77;10.55;;;0.10;99.90;;;;;;5014998;28;20561;-77
2022/01/12 01:01:19;;;;;;;18.40;9.85;;;0.10;99.90;;;;;;4997371;28;20075;-77
2022/01/12 01:03:47;;;;;;;20.65;10.40;;;0.10;99.90;;;;;;4997343;28;20030;-79
2022/01/12 01:06:13;;;;;;;19.50;10.48;;;0.20;99.90;;;;;;4997558;28;20539;-77
2022/01/12 01:08:40;;;;;;;17.40;10.13;;;0.10;99.90;;;;;;4997266;28;20029;-77
2022/01/12 01:11:06;;;;;;;18.65;9.95;;;0.10;99.90;;;;;;5014901;28;20439;-75
2022/01/12 01:13:44;;;;;;;19.35;9.95;;;0.10;99.90;;;;;;4996801;28;20507;-77
2022/01/12 01:16:20;;;;;;;19.88;11.18;;;0.10;99.90;;;;;;4997034;28;20038;-77
2022/01/12 01:27:03;;;;;;;22.13;11.48;;;0.00;99.90;;;;;;4937871;29;20855;-76
2022/01/12 01:29:31;;;;;;;20.70;10.98;;;0.00;99.90;;;;;;4937709;29;20050;-77
2022/01/12 01:32:00;;;;;;;19.98;10.90;;;0.00;99.90;;;;;;4953688;29;20078;-76
2022/01/12 01:34:27;;;;;;;18.10;9.80;;;0.00;99.90;;;;;;4953619;29;20536;-77
2022/01/12 01:36:56;;;;;;;18.15;10.00;;;0.00;99.90;;;;;;4953717;29;20035;-74
2022/01/12 01:39:27;;;;;;;20.20;11.18;;;0.00;99.90;;;;;;4953353;29;20038;-77
2022/01/12 01:42:01;;;;;;;16.88;9.15;;;-0.10;99.90;;;;;;4953841;29;20035;-79
2022/01/12 01:53:17;;;;;;;19.38;9.35;;;-0.10;99.90;;;;;;4953738;29;20027;-78
2022/01/12 01:55:38;;;;;;;15.93;7.82;;;-0.10;99.90;;;;;;4953240;29;20029;-78
2022/01/12 01:58:04;;;;;;;17.98;9.15;;;-0.10;99.90;;;;;;4966421;28;20488;-77
2022/01/12 02:00:34;;;;;;;17.00;9.68;;;-0.10;99.90;;;;;;5024905;28;20052;-75
2022/01/12 02:03:05;;;;;;;16.67;9.95;;;-0.10;99.90;;;;;;5012806;28;20400;-76
2022/01/12 02:05:42;;;;;;;19.98;10.45;;;-0.20;99.90;;;;;;5008843;28;20033;-75
2022/01/12 02:08:09;;;;;;;16.50;8.85;;;-0.10;99.90;;;;;;5005928;28;20073;-77
2022/01/12 02:10:42;;;;;;;19.27;9.40;;;-0.20;99.90;;;;;;4995920;28;20037;-77
2022/01/12 02:13:09;;;;;;;19.70;10.32;;;-0.20;99.90;;;;;;4990041;28;20030;-77
2022/01/12 02:15:37;;;;;;;19.33;10.25;;;-0.20;99.90;;;;;;4996027;28;20053;-74
2022/01/12 02:40:23;;;;;;;17.52;9.45;;;-0.20;99.90;;;;;;4993718;28;20037;-73
2022/01/12 02:42:59;;;;;;;14.90;8.85;;;-0.30;99.90;;;;;;4991613;28;20100;-77
2022/01/12 02:51:08;;;;;;;19.30;9.68;;;-0.30;99.90;;;;;;5011588;28;20034;-75
2022/01/12 02:53:42;;;;;;;17.70;9.27;;;-0.40;99.90;;;;;;5011660;28;20026;-76
2022/01/12 02:56:16;;;;;;;15.23;8.63;;;-0.30;99.90;;;;;;5011572;28;20033;-77
2022/01/12 02:58:44;;;;;;;13.00;7.28;;;-0.50;99.90;;;;;;5011246;28;20132;-77
2022/01/12 03:03:42;;;;;;;17.38;8.45;;;-0.50;99.90;;;;;;5011421;28;20045;-76
2022/01/12 03:06:09;;;;;;;20.08;8.98;;;-0.60;99.90;;;;;;5003979;28;20534;-76
2022/01/12 03:08:38;;;;;;;14.80;7.43;;;-0.60;99.90;;;;;;5012396;28;20021;-76
2022/01/12 03:11:06;;;;;;;14.32;6.95;;;-0.60;99.90;;;;;;5010782;28;20030;-75
2022/01/12 03:13:35;;;;;;;16.67;8.60;;;-0.60;99.90;;;;;;4994716;28;20503;-75
2022/01/12 03:16:10;;;;;;;15.88;9.63;;;-0.60;99.90;;;;;;4994714;28;20603;-75
2022/01/12 03:18:37;;;;;;;12.98;7.40;;;-0.50;99.90;;;;;;5007177;28;20064;-75
2022/01/12 03:21:04;;;;;;;11.73;5.43;;;-0.60;99.90;;;;;;5012437;28;20112;-76
2022/01/12 03:23:31;;;;;;;12.88;6.80;;;-0.60;99.90;;;;;;5006429;28;20488;-74
2022/01/12 03:25:56;;;;;;;11.27;5.95;;;-0.70;99.90;;;;;;4993698;28;20026;-76
2022/01/12 03:28:23;;;;;;;10.88;5.93;;;-0.80;99.90;;;;;;5010965;28;20033;-73
2022/01/12 03:31:06;;;;;;;12.30;6.40;;;-0.80;99.90;;;;;;4994613;28;20108;-73
2022/01/12 03:33:49;;;;;;;12.35;6.35;;;-0.90;99.90;;;;;;5006530;28;20037;-74
2022/01/12 03:38:57;;;;;;;14.20;6.07;;;-0.90;99.90;;;;;;5011896;28;20034;-76
2022/01/12 03:41:30;;;;;;;10.30;5.88;;;-0.90;99.90;;;;;;5012004;28;20022;-76
2022/01/12 03:43:59;;;;;;;13.18;6.40;;;-0.90;99.90;;;;;;5011930;28;20022;-75
2022/01/12 03:46:33;;;;;;;14.02;6.50;;;-1.00;99.90;;;;;;5012073;28;20072;-76
2022/01/12 03:48:59;;;;;;;14.35;6.30;;;-1.00;99.90;;;;;;5010834;28;20137;-74
2022/01/12 03:51:26;;;;;;;12.20;6.65;;;-1.00;99.90;;;;;;5010708;28;20044;-76
2022/01/12 03:53:52;;;;;;;11.57;5.80;;;-1.10;99.90;;;;;;5011775;28;20048;-77
2022/01/12 03:56:18;;;;;;;14.05;6.43;;;-1.10;99.90;;;;;;5011928;28;20512;-74
2022/01/12 03:58:44;;;;;;;13.00;6.10;;;-1.10;99.90;;;;;;5010402;28;20440;-75
2022/01/12 04:01:10;;;;;;;14.07;6.65;;;-1.20;99.90;;;;;;5003076;28;20060;-77
2022/01/12 04:03:41;;;;;;;15.07;6.57;;;-1.20;99.90;;;;;;4990842;28;20030;-76
2022/01/12 04:08:52;;;;;;;14.43;6.60;;;-1.20;99.90;;;;;;5010272;28;20045;-76
2022/01/12 04:11:18;;;;;;;12.43;6.32;;;-1.20;99.90;;;;;;5010278;28;20032;-76
2022/01/12 04:13:47;;;;;;;14.40;7.70;;;-1.20;99.90;;;;;;5012136;28;20022;-78
2022/01/12 04:16:13;;;;;;;12.73;6.13;;;-1.20;99.90;;;;;;5009982;28;20034;-77
2022/01/12 04:18:40;;;;;;;15.45;6.82;;;-1.20;99.90;;;;;;4993876;28;20060;-78
2022/01/12 04:21:08;;;;;;;11.10;6.28;;;-1.20;99.90;;;;;;4993835;28;20063;-76
2022/01/12 04:23:36;;;;;;;11.70;7.32;;;-1.20;99.90;;;;;;4993770;28;20120;-78
2022/01/12 04:26:09;;;;;;;12.18;6.72;;;-1.30;99.90;;;;;;4993972;28;20021;-78
2022/01/12 04:28:37;;;;;;;14.18;7.28;;;-1.30;99.90;;;;;;5011466;28;20050;-77
2022/01/12 04:31:03;;;;;;;11.38;7.00;;;-1.30;99.90;;;;;;4993700;28;20030;-77
2022/01/12 04:33:30;;;;;;;13.40;6.57;;;-1.30;99.90;;;;;;4993870;28;20041;-78
2022/01/12 04:35:56;;;;;;;12.52;6.43;;;-1.30;99.90;;;;;;5011601;28;20579;-75
2022/01/12 04:38:26;;;;;;;13.60;6.18;;;-1.30;99.90;;;;;;4994060;28;20427;-77
2022/01/12 04:40:52;;;;;;;13.15;5.80;;;-1.30;99.90;;;;;;4993654;28;20068;-76
2022/01/12 04:43:21;;;;;;;13.15;6.32;;;-1.40;99.90;;;;;;4993492;28;20124;-77
2022/01/12 04:50:50;;;;;;;10.80;5.22;;;-1.40;99.90;;;;;;4993482;28;20117;-78
2022/01/12 04:53:18;;;;;;;11.57;6.03;;;-1.40;99.90;;;;;;4993820;28;20030;-76
2022/01/12 04:55:43;;;;;;;13.65;6.68;;;-1.40;99.90;;;;;;4993655;28;20030;-76
2022/01/12 04:58:11;;;;;;;10.93;5.78;;;-1.40;99.90;;;;;;4999863;28;20196;-76
2022/01/12 05:00:38;;;;;;;12.05;5.32;;;-1.40;99.90;;;;;;4996204;28;20109;-79
2022/01/12 05:13:51;;;;;;;9.85;5.93;;;-1.50;99.90;;;;;;4997085;28;20487;-77
2022/01/12 05:16:19;;;;;;;9.25;4.80;;;-1.50;99.90;;;;;;5014056;28;20021;-76
2022/01/12 05:18:47;;;;;;;11.57;5.85;;;-1.50;99.90;;;;;;4996158;28;20034;-77
2022/01/12 05:21:15;;;;;;;15.55;7.20;;;-1.50;99.90;;;;;;5013349;28;20026;-77
2022/01/12 05:23:41;;;;;;;12.13;6.40;;;-1.50;99.90;;;;;;4996554;28;20033;-77
2022/01/12 05:26:08;;;;;;;10.63;5.03;;;-1.50;99.90;;;;;;4996465;28;20026;-78
2022/01/12 05:28:38;;;;;;;11.27;6.00;;;-1.50;99.90;;;;;;4996965;28;20025;-74
2022/01/12 05:31:09;;;;;;;11.18;5.97;;;-1.50;99.90;;;;;;4996230;28;20026;-75
2022/01/12 05:33:37;;;;;;;10.82;5.50;;;-1.50;99.90;;;;;;4996398;28;20169;-76
2022/01/12 05:36:06;;;;;;;13.55;6.15;;;-1.50;99.90;;;;;;5014154;28;20038;-76
2022/01/12 05:38:32;;;;;;;16.30;7.90;;;-1.40;99.90;;;;;;4998207;28;20025;-75
2022/01/12 05:41:04;;;;;;;10.60;5.40;;;-1.40;99.90;;;;;;4997632;28;20120;-75
2022/01/12 05:43:31;;;;;;;9.45;5.57;;;-1.40;99.90;;;;;;4996409;28;20033;-71
2022/01/12 05:46:09;;;;;;;10.45;5.25;;;-1.40;99.90;;;;;;4996397;28;20551;-75
2022/01/12 05:51:20;;;;;;;12.68;5.70;;;-1.50;99.90;;;;;;4996141;28;20099;-76
2022/01/12 05:53:46;;;;;;;11.00;5.60;;;-1.40;99.90;;;;;;4996694;28;20053;-74
2022/01/12 05:56:12;;;;;;;9.15;4.63;;;-1.50;99.90;;;;;;4999040;28;20088;-76
2022/01/12 05:58:38;;;;;;;11.52;5.85;;;-1.50;99.90;;;;;;4996046;28;20490;-77
2022/01/12 06:01:04;;;;;;;10.07;5.50;;;-1.50;99.90;;;;;;4995921;28;20030;-76
2022/01/12 06:03:31;;;;;;;11.65;5.78;;;-1.50;99.90;;;;;;4996194;28;20021;-76
2022/01/12 06:06:00;;;;;;;11.88;5.68;;;-1.50;99.90;;;;;;4995701;28;20040;-76
2022/01/12 06:08:26;;;;;;;11.43;5.50;;;-1.50;99.90;;;;;;5011879;28;20397;-74
2022/01/12 06:10:52;;;;;;;13.13;5.97;;;-1.50;99.90;;;;;;4994868;28;20034;-77
2022/01/12 06:13:19;;;;;;;9.93;5.03;;;-1.50;99.90;;;;;;4996047;28;20542;-76
2022/01/12 06:15:45;;;;;;;15.50;7.18;;;-1.50;99.90;;;;;;4995863;28;20464;-76
2022/01/12 06:18:11;;;;;;;18.05;7.80;;;-1.50;99.90;;;;;;4995528;28;20120;-76
2022/01/12 06:20:37;;;;;;;13.63;6.18;;;-1.60;99.90;;;;;;5012608;28;20113;-77
2022/01/12 06:23:27;;;;;;;21.55;8.63;;;-1.50;99.90;;;;;;5020651;28;20224;-76
2022/01/12 06:25:56;;;;;;;15.68;7.75;;;-1.50;99.90;;;;;;5013705;28;20037;-75
2022/01/12 06:31:13;;;;;;;17.55;7.22;;;-1.50;99.90;;;;;;5019417;28;20072;-76
2022/01/12 06:33:48;;;;;;;15.10;8.00;;;-1.50;99.90;;;;;;5014259;28;20033;-76
2022/01/12 06:36:18;;;;;;;17.10;9.07;;;-1.50;99.90;;;;;;5013239;28;20380;-74
2022/01/12 06:38:45;;;;;;;18.92;10.32;;;-1.40;99.90;;;;;;4995585;28;20021;-75
2022/01/12 06:41:12;;;;;;;18.20;8.10;;;-1.40;99.90;;;;;;5013137;28;20400;-77
2022/01/12 06:43:39;;;;;;;17.92;8.50;;;-1.40;99.90;;;;;;4995299;28;20045;-76
2022/01/12 06:46:06;;;;;;;16.48;7.13;;;-1.30;99.90;;;;;;4996186;28;20065;-76
2022/01/12 06:48:33;;;;;;;13.18;6.15;;;-1.40;99.90;;;;;;4995147;28;20025;-76
2022/01/12 06:51:00;;;;;;;14.45;6.75;;;-1.20;99.90;;;;;;5012791;28;20120;-73
2022/01/12 06:53:26;;;;;;;18.15;7.43;;;-1.30;99.90;;;;;;5012946;28;20511;-76
2022/01/12 06:55:53;;;;;;;20.50;9.50;;;-1.20;99.90;;;;;;4993395;28;20041;-75
2022/01/12 06:58:19;;;;;;;22.20;11.77;;;-1.20;99.90;;;;;;5011498;28;20038;-75
2022/01/12 07:00:47;;;;;;;15.65;7.93;;;-1.20;99.90;;;;;;4994916;28;20066;-75
2022/01/12 07:03:14;;;;;;;15.63;7.90;;;-1.20;99.90;;;;;;4977458;28;20026;-77
2022/01/12 07:05:53;;;;;;;17.30;9.40;;;-1.20;99.90;;;;;;4999167;28;20029;-75
2022/01/12 07:08:21;;;;;;;17.13;8.48;;;-1.20;99.90;;;;;;5003295;28;20384;-75
2022/01/12 07:10:49;;;;;;;17.25;9.20;;;-1.20;99.90;;;;;;4994874;28;20464;-76
2022/01/12 07:13:20;;;;;;;14.48;7.55;;;-1.20;99.90;;;;;;5018904;28;20037;-76
2022/01/12 07:15:47;;;;;;;14.63;7.53;;;-1.30;99.90;;;;;;5002437;28;20107;-76
2022/01/12 07:18:21;;;;;;;13.95;6.95;;;-1.30;99.90;;;;;;5004579;28;20072;-75
2022/01/12 07:20:49;;;;;;;12.75;7.03;;;-1.20;99.90;;;;;;5003942;28;20447;-77
2022/01/12 07:23:15;;;;;;;17.88;8.50;;;-1.30;99.90;;;;;;4994745;28;20109;-74
2022/01/12 07:25:41;;;;;;;21.60;9.52;;;-1.30;99.90;;;;;;5012272;28;20113;-76
2022/01/12 07:28:07;;;;;;;18.60;9.18;;;-1.20;99.90;;;;;;5011092;28;20033;-76
2022/01/12 07:30:33;;;;;;;21.98;11.35;;;-1.20;99.90;;;;;;5012877;28;20030;-77
2022/01/12 07:32:59;;;;;;;22.08;10.23;;;-1.20;99.90;;;;;;5014320;28;20077;-76
2022/01/12 07:35:25;;;;;;;23.58;11.55;;;-1.20;99.90;;;;;;4997628;28;20026;-76
2022/01/12 07:37:51;;;;;;;18.88;9.60;;;-1.20;99.90;;;;;;5018791;28;20058;-76
2022/01/12 07:40:18;;;;;;;17.08;9.77;;;-1.20;99.90;;;;;;5020635;28;20033;-75
2022/01/12 07:42:45;;;;;;;20.55;10.95;;;-1.30;99.90;;;;;;5019355;28;20026;-76
2022/01/12 07:45:14;;;;;;;16.60;8.60;;;-1.20;99.90;;;;;;4999138;28;20026;-76
2022/01/12 07:47:39;;;;;;;22.70;9.60;;;-1.30;99.90;;;;;;5014178;28;20502;-75
2022/01/12 07:50:08;;;;;;;22.83;11.40;;;-1.30;99.90;;;;;;5014591;28;20030;-76
2022/01/12 07:52:34;;;;;;;25.33;11.88;;;-1.30;99.90;;;;;;5012663;28;20041;-75
2022/01/12 07:55:00;;;;;;;22.08;10.93;;;-1.40;99.90;;;;;;5011707;28;20037;-77
2022/01/12 07:57:27;;;;;;;28.23;13.80;;;-1.40;99.90;;;;;;5011911;28;20359;-76
2022/01/12 07:59:56;;;;;;;32.83;17.83;;;-1.40;99.90;;;;;;5012140;28;20409;-76
2022/01/12 08:02:22;;;;;;;43.55;23.35;;;-1.60;99.90;;;;;;5011787;28;20427;-75
2022/01/12 08:04:51;;;;;;;42.80;19.73;;;-1.60;99.90;;;;;;5010542;28;20041;-76
2022/01/12 08:07:17;;;;;;;27.90;14.77;;;-1.70;99.90;;;;;;5010840;28;20122;-75
2022/01/12 08:09:45;;;;;;;23.30;11.90;;;-1.80;99.90;;;;;;5024250;28;20032;-76
2022/01/12 08:12:12;;;;;;;33.70;17.92;;;-1.80;99.90;;;;;;5018974;28;20022;-76
2022/01/12 08:14:38;;;;;;;37.38;19.60;;;-1.50;99.90;;;;;;4994586;28;20109;-75
2022/01/12 08:17:04;;;;;;;53.88;28.52;;;-1.40;99.90;;;;;;5010942;28;20475;-77
2022/01/12 08:19:34;;;;;;;35.85;17.33;;;-1.30;99.90;;;;;;5010667;28;20061;-77
2022/01/12 08:22:00;;;;;;;24.02;11.75;;;-1.40;99.90;;;;;;5010331;28;20044;-76
2022/01/12 08:24:26;;;;;;;20.35;11.10;;;-1.30;99.90;;;;;;5010593;28;20029;-76
2022/01/12 08:26:52;;;;;;;25.88;14.10;;;-1.20;99.90;;;;;;5011086;28;20029;-76
2022/01/12 08:29:18;;;;;;;34.08;16.92;;;-1.00;99.90;;;;;;5015733;28;20068;-77
2022/01/12 08:31:46;;;;;;;35.15;18.13;;;-0.80;99.90;;;;;;5028129;28;20030;-75
2022/01/12 08:34:12;;;;;;;32.03;14.95;;;-0.90;99.90;;;;;;5013260;28;20018;-77
2022/01/12 08:36:40;;;;;;;40.35;19.95;;;-1.00;99.90;;;;;;5017161;28;20061;-75
2022/01/12 08:39:08;;;;;;;29.20;16.90;;;-0.90;99.90;;;;;;5019298;28;20109;-76
2022/01/12 08:41:37;;;;;;;35.60;19.52;;;-0.90;99.90;;;;;;5024770;28;20085;-74
2022/01/12 08:44:06;;;;;;;30.80;16.95;;;-0.90;99.90;;;;;;4999945;28;20535;-76
2022/01/12 08:46:32;;;;;;;32.20;18.02;;;-0.90;99.90;;;;;;5016959;28;20022;-76
2022/01/12 08:48:57;;;;;;;28.75;15.48;;;-0.90;99.90;;;;;;5015090;28;20045;-75
2022/01/12 08:51:24;;;;;;;23.55;14.18;;;-0.80;99.90;;;;;;5015110;28;20038;-74
2022/01/12 08:53:50;;;;;;;22.30;12.68;;;-0.80;99.90;;;;;;5015238;28;20490;-75
2022/01/12 08:56:16;;;;;;;34.78;16.30;;;-0.80;97.80;;;;;;5002080;28;20046;-76
2022/01/12 08:58:42;;;;;;;26.67;13.60;;;-0.70;99.40;;;;;;5015091;28;20061;-76
2022/01/12 09:01:10;;;;;;;28.63;14.75;;;-0.60;99.90;;;;;;5015024;28;20026;-76
2022/01/12 09:03:38;;;;;;;33.83;18.30;;;-0.70;99.30;;;;;;5013918;28;20072;-77
2022/01/12 09:06:05;;;;;;;25.05;12.73;;;-0.80;98.20;;;;;;4996545;28;20029;-76
2022/01/12 09:08:34;;;;;;;27.55;14.90;;;-0.80;99.70;;;;;;5013115;28;20026;-75
2022/01/12 09:11:00;;;;;;;26.65;14.77;;;-0.70;99.90;;;;;;5013159;28;20038;-76
2022/01/12 09:13:27;;;;;;;28.38;15.40;;;-0.70;99.90;;;;;;5013968;28;20033;-76
2022/01/12 09:15:53;;;;;;;27.90;14.88;;;-0.40;99.90;;;;;;5014462;28;20057;-75
2022/01/12 09:18:19;;;;;;;25.77;14.05;;;-0.50;99.50;;;;;;5014429;28;20080;-76
2022/01/12 09:20:46;;;;;;;23.83;13.07;;;-0.50;99.90;;;;;;5014485;28;20033;-75
2022/01/12 09:23:13;;;;;;;26.30;13.80;;;-0.50;99.00;;;;;;5014355;28;20120;-75
2022/01/12 09:25:39;;;;;;;22.35;13.38;;;-0.40;99.90;;;;;;5013958;28;20026;-74
2022/01/12 09:28:06;;;;;;;26.00;13.55;;;-0.40;98.40;;;;;;5014286;28;20093;-76
2022/01/12 09:30:33;;;;;;;24.20;12.80;;;-0.50;98.80;;;;;;4996633;28;20033;-75
2022/01/12 09:32:59;;;;;;;28.67;13.52;;;-0.40;99.90;;;;;;5016215;28;20034;-75
2022/01/12 09:35:26;;;;;;;25.65;14.30;;;-0.50;98.30;;;;;;5012083;28;20033;-74
2022/01/12 09:37:52;;;;;;;27.25;14.15;;;-0.30;98.40;;;;;;5012709;28;20037;-73
2022/01/12 09:40:19;;;;;;;25.23;14.32;;;-0.20;99.70;;;;;;5013144;28;20080;-76
2022/01/12 09:42:47;;;;;;;28.60;15.75;;;-0.20;98.50;;;;;;5013685;28;20026;-75
2022/01/12 09:45:17;;;;;;;29.55;15.85;;;-0.30;98.50;;;;;;5018643;28;20384;-74
2022/01/12 09:47:47;;;;;;;31.05;16.80;;;-0.20;98.70;;;;;;5022543;28;20030;-76
2022/01/12 09:50:17;;;;;;;24.20;13.82;;;-0.20;98.80;;;;;;5006577;28;20060;-75
2022/01/12 09:52:45;;;;;;;24.75;14.85;;;-0.10;98.50;;;;;;5014803;28;20034;-75
2022/01/12 09:55:11;;;;;;;27.30;16.02;;;-0.30;99.50;;;;;;5013844;28;20114;-75
2022/01/12 09:57:38;;;;;;;28.70;15.57;;;-0.40;99.90;;;;;;5020010;28;20046;-75
2022/01/12 10:00:06;;;;;;;23.20;13.98;;;-0.30;99.20;;;;;;4995526;28;20028;-76
2022/01/12 10:02:41;;;;;;;26.40;15.43;;;-0.30;98.70;;;;;;5012623;28;20046;-75
2022/01/12 10:05:10;;;;;;;29.50;16.33;;;-0.40;98.40;;;;;;5023428;28;20026;-76
2022/01/12 10:07:37;;;;;;;31.83;19.23;;;-0.30;99.00;;;;;;5019423;28;20034;-75
2022/01/12 10:10:06;;;;;;;28.05;15.02;;;-0.40;99.40;;;;;;5013341;28;20077;-75
2022/01/12 10:12:33;;;;;;;26.30;14.88;;;-0.30;99.40;;;;;;5026452;28;20030;-75
2022/01/12 10:15:09;;;;;;;28.63;16.48;;;-0.40;99.60;;;;;;5023421;28;20105;-76
2022/01/12 10:17:42;;;;;;;29.70;17.25;;;-0.30;99.40;;;;;;4995898;28;20041;-74
2022/01/12 10:20:12;;;;;;;27.77;15.57;;;-0.20;99.20;;;;;;5012497;28;20030;-73
2022/01/12 10:22:44;;;;;;;64.22;32.55;;;-0.30;95.60;;;;;;5012484;28;20385;-74
2022/01/12 10:25:29;;;;;;;33.67;17.20;;;-0.40;97.80;;;;;;5012186;28;20601;-75
2022/01/12 10:27:56;;;;;;;47.20;24.83;;;-0.30;97.10;;;;;;4995129;28;20045;-75
2022/01/12 10:30:28;;;;;;;27.88;14.85;;;-0.10;98.90;;;;;;5012413;28;20408;-74
2022/01/12 10:33:05;;;;;;;27.95;15.05;;;-0.20;96.00;;;;;;4994624;28;20100;-74
2022/01/12 10:35:33;;;;;;;30.98;14.30;;;-0.10;98.40;;;;;;5023596;28;20026;-76
2022/01/12 10:38:07;;;;;;;39.33;18.60;;;-0.30;97.30;;;;;;5022363;28;20458;-74
2022/01/12 10:41:04;;;;;;;28.52;15.80;;;-0.40;97.20;;;;;;5011943;28;20030;-74
2022/01/12 10:43:35;;;;;;;26.95;15.45;;;-0.40;97.30;;;;;;4917536;29;20036;-73
2022/01/12 10:46:10;;;;;;;33.05;17.33;;;-0.40;96.70;;;;;;4912401;29;20036;-75
2022/01/12 10:48:45;;;;;;;34.53;16.90;;;-0.40;97.80;;;;;;4912235;29;20044;-74
2022/01/12 10:51:16;;;;;;;27.70;15.82;;;-0.30;98.30;;;;;;4912662;29;20566;-73
2022/01/12 10:53:42;;;;;;;28.02;15.32;;;-0.40;98.30;;;;;;4912512;29;20055;-74
2022/01/12 10:56:11;;;;;;;31.00;16.23;;;-0.40;96.90;;;;;;4912661;29;20035;-74
2022/01/12 10:58:40;;;;;;;27.50;15.23;;;-0.30;97.10;;;;;;4911497;29;20056;-74
2022/01/12 11:01:07;;;;;;;28.13;16.90;;;-0.10;97.70;;;;;;4912973;29;20067;-74
2022/01/12 11:03:34;;;;;;;35.00;19.45;;;0.00;98.90;;;;;;4911805;29;20032;-73
2022/01/12 11:06:00;;;;;;;35.38;19.35;;;-0.10;97.40;;;;;;4912612;29;20479;-74
2022/01/12 11:08:28;;;;;;;32.45;17.40;;;-0.10;96.00;;;;;;4912782;29;20040;-75
2022/01/12 11:10:56;;;;;;;31.38;18.25;;;-0.10;96.90;;;;;;4912431;29;20123;-72
2022/01/12 11:13:25;;;;;;;57.13;29.63;;;0.00;97.80;;;;;;4912222;29;20511;-74
2022/01/12 11:15:52;;;;;;;21.83;10.80;;;-0.10;97.00;;;;;;4897072;29;20550;-74
2022/01/12 11:18:26;;;;;;;22.38;12.13;;;-0.20;93.60;;;;;;4923017;29;20467;-75
2022/01/12 11:21:16;;;;;;;21.65;11.55;;;0.10;95.20;;;;;;5013983;28;20093;-75
2022/01/12 11:23:43;;;;;;;21.42;11.73;;;0.10;93.80;;;;;;4931723;29;20405;-75
2022/01/12 11:26:16;;;;;;;21.13;11.95;;;-0.10;93.10;;;;;;4931762;29;20040;-74
2022/01/12 11:28:45;;;;;;;22.33;11.40;;;0.00;94.30;;;;;;4931722;29;20036;-74
2022/01/12 11:31:12;;;;;;;27.42;14.30;;;0.00;93.30;;;;;;4931854;29;20031;-73
2022/01/12 11:33:43;;;;;;;26.42;15.02;;;-0.10;93.60;;;;;;4940992;29;20061;-75
2022/01/12 11:36:27;;;;;;;27.25;15.32;;;0.00;95.90;;;;;;4937324;29;20027;-71
2022/01/12 11:39:08;;;;;;;33.35;16.55;;;0.10;96.90;;;;;;4930157;29;20023;-69
2022/01/12 11:41:37;;;;;;;32.33;17.23;;;0.10;95.80;;;;;;4917464;29;20039;-72
2022/01/12 11:44:31;;;;;;;28.23;16.17;;;0.20;97.20;;;;;;4946407;29;20039;-70
2022/01/12 11:46:59;;;;;;;26.15;14.18;;;0.30;97.00;;;;;;4929931;29;20478;-73
2022/01/12 11:49:38;;;;;;;29.55;15.45;;;0.20;95.20;;;;;;4937119;29;20039;-69
2022/01/12 11:52:18;;;;;;;31.80;16.65;;;0.20;99.10;;;;;;4932503;29;20048;-73
2022/01/12 11:54:52;;;;;;;33.35;17.73;;;0.30;96.50;;;;;;4931787;29;20409;-73
2022/01/12 11:57:34;;;;;;;29.10;15.75;;;0.30;96.50;;;;;;4933363;29;20055;-73
2022/01/12 12:00:09;;;;;;;32.10;16.20;;;0.40;95.60;;;;;;4943481;28;20113;-73
2022/01/12 12:02:43;;;;;;;34.70;18.83;;;0.20;96.30;;;;;;5009853;28;20014;-72
2022/01/12 12:05:15;;;;;;;45.13;21.90;;;0.30;96.50;;;;;;5010491;28;20033;-70
2022/01/12 12:07:53;;;;;;;32.05;15.30;;;0.30;93.40;;;;;;5009436;28;20491;-73
2022/01/12 12:10:22;;;;;;;32.50;17.33;;;0.30;95.50;;;;;;5013182;28;20473;-73
2022/01/12 12:12:50;;;;;;;25.77;13.90;;;0.40;94.40;;;;;;5012826;28;20040;-72
2022/01/12 12:15:16;;;;;;;32.70;15.85;;;0.40;98.10;;;;;;5007669;28;20026;-72
2022/01/12 12:17:42;;;;;;;30.20;16.50;;;0.50;96.50;;;;;;5010570;28;20056;-72
2022/01/12 12:20:14;;;;;;;29.67;16.30;;;0.50;96.60;;;;;;5010849;28;20033;-74
2022/01/12 12:22:42;;;;;;;25.08;14.40;;;0.40;96.10;;;;;;5011274;28;20083;-74
2022/01/12 12:25:12;;;;;;;30.08;17.20;;;0.50;97.50;;;;;;5011486;28;20030;-73
2022/01/12 12:27:53;;;;;;;32.92;15.82;;;0.50;97.40;;;;;;5006616;28;20022;-74
2022/01/12 12:30:21;;;;;;;31.95;15.82;;;0.60;96.30;;;;;;5011255;28;20504;-74
2022/01/12 12:32:55;;;;;;;26.92;13.88;;;0.50;97.20;;;;;;5011362;28;20395;-72
2022/01/12 12:35:24;;;;;;;27.42;13.90;;;0.50;97.30;;;;;;5011661;28;20027;-73
2022/01/12 12:38:01;;;;;;;25.90;14.38;;;0.50;95.80;;;;;;5011419;28;20100;-73
2022/01/12 12:40:35;;;;;;;32.50;16.27;;;0.60;99.00;;;;;;5011770;28;20030;-73
2022/01/12 12:43:07;;;;;;;31.67;14.77;;;0.60;97.30;;;;;;5011699;28;20037;-74
2022/01/12 12:45:37;;;;;;;31.77;16.35;;;0.60;98.70;;;;;;5011654;28;20208;-73
2022/01/12 12:48:08;;;;;;;30.45;16.55;;;0.50;98.40;;;;;;5009813;28;20034;-74
2022/01/12 12:50:34;;;;;;;25.80;14.40;;;0.60;98.20;;;;;;5011475;28;20088;-74
2022/01/12 12:53:00;;;;;;;28.13;14.07;;;0.50;97.30;;;;;;5010598;28;20025;-74
2022/01/12 12:55:32;;;;;;;28.02;15.65;;;0.60;96.50;;;;;;5011102;28;20084;-74
2022/01/12 12:57:58;;;;;;;30.98;16.55;;;0.60;96.50;;;;;;5011108;28;20054;-74
2022/01/12 13:00:26;;;;;;;30.42;15.82;;;0.60;94.70;;;;;;5011400;28;20057;-73
2022/01/12 13:02:56;;;;;;;34.17;17.27;;;0.60;94.40;;;;;;5012065;28;20074;-74
2022/01/12 13:05:28;;;;;;;34.83;19.50;;;0.60;94.90;;;;;;5011965;28;20080;-74
2022/01/12 13:07:54;;;;;;;31.45;17.13;;;0.60;93.70;;;;;;5011141;28;20069;-74
2022/01/12 13:10:22;;;;;;;33.63;16.98;;;0.50;94.40;;;;;;5003445;28;20018;-74
2022/01/12 13:12:52;;;;;;;32.90;16.27;;;0.50;94.00;;;;;;5011133;28;20341;-75
2022/01/12 13:15:21;;;;;;;27.85;15.18;;;0.40;94.40;;;;;;5011678;28;20037;-74
2022/01/12 13:17:48;;;;;;;28.42;15.75;;;0.50;95.70;;;;;;5013302;28;20022;-74
2022/01/12 13:22:50;;;;;;;28.02;16.23;;;0.40;95.20;;;;;;5015100;28;20018;-74
2022/01/12 13:25:17;;;;;;;31.58;17.17;;;0.40;95.60;;;;;;5006703;28;20022;-75
2022/01/12 13:27:47;;;;;;;28.73;17.35;;;0.40;96.20;;;;;;5014554;28;20099;-74
2022/01/12 13:30:25;;;;;;;35.88;18.58;;;0.40;95.10;;;;;;5014248;28;20383;-72
2022/01/12 13:32:56;;;;;;;29.05;16.20;;;0.40;96.10;;;;;;5014581;28;20521;-74
2022/01/12 13:35:42;;;;;;;33.03;17.92;;;0.40;94.70;;;;;;5014524;28;20388;-75
2022/01/12 13:38:08;;;;;;;29.23;16.10;;;0.30;95.50;;;;;;5014563;28;20041;-74
2022/01/12 13:40:39;;;;;;;27.45;14.93;;;0.40;96.00;;;;;;5013830;28;20100;-73
2022/01/12 13:43:05;;;;;;;39.08;19.52;;;0.40;95.70;;;;;;5013816;28;20021;-74
2022/01/12 13:45:41;;;;;;;24.83;14.90;;;0.40;96.80;;;;;;5013877;28;20026;-74
2022/01/12 13:48:14;;;;;;;26.15;14.18;;;0.40;94.50;;;;;;5013858;28;20025;-74
2022/01/12 13:50:59;;;;;;;26.92;14.10;;;0.40;96.20;;;;;;4996667;28;20084;-74
2022/01/12 13:53:43;;;;;;;31.15;18.17;;;0.30;95.50;;;;;;5007216;28;20066;-74
2022/01/12 13:56:10;;;;;;;36.88;16.42;;;0.40;97.10;;;;;;5014767;28;20038;-74
2022/01/12 13:58:37;;;;;;;29.65;18.52;;;0.40;99.00;;;;;;5013681;28;20042;-74
2022/01/12 14:01:10;;;;;;;38.50;19.60;;;0.40;98.50;;;;;;5013977;28;20526;-75
2022/01/12 14:03:45;;;;;;;;;;;0.40;98.60;;;;;;5014077;28;20278;-73
2022/01/12 14:06:16;;;;;;;32.90;17.05;;;0.30;97.60;;;;;;5013420;28;19909;-74
2022/01/12 14:08:56;;;;;;;32.40;16.00;;;0.20;98.50;;;;;;5013235;28;20026;-74